Time;durP1;ratioP1;P1;durP2;ratioP2;P2;SDS_P1;SDS_P2;PMS_P1;PMS_P2;Temp;Humidity;BMP_temperature;BMP_pressure;BME280_temperature;BME280_humidity;BME280_pressure;Samples;Min_cycle;Max_cycle;Signal;HPM_P1;HPM_P2
2022/06/09 00:00:12;;;;;;;0.50;0.50;;;14.40;99.90;;;;;;5000250;28;20064;-83
2022/06/09 00:02:44;;;;;;;0.40;0.40;;;14.40;99.90;;;;;;5021496;28;20044;-82
2022/06/09 00:05:12;;;;;;;0.75;0.50;;;14.40;99.90;;;;;;5001122;28;20053;-83
2022/06/09 00:07:38;;;;;;;0.40;0.40;;;14.40;99.90;;;;;;5005400;28;20105;-82
2022/06/09 00:10:17;;;;;;;0.40;0.40;;;14.40;99.90;;;;;;5034810;28;20030;-82
2022/06/09 00:12:43;;;;;;;1.08;0.35;;;14.40;99.90;;;;;;5013403;28;20029;-83
2022/06/09 00:15:11;;;;;;;0.50;0.38;;;14.50;99.90;;;;;;5030912;28;20087;-83
2022/06/09 00:17:37;;;;;;;0.30;0.30;;;14.50;99.90;;;;;;5036558;28;20032;-83
2022/06/09 00:20:05;;;;;;;0.43;0.30;;;14.60;99.90;;;;;;5037515;28;20021;-82
2022/06/09 00:22:30;;;;;;;0.50;0.50;;;14.60;99.90;;;;;;5031998;28;20040;-82
2022/06/09 00:24:57;;;;;;;0.40;0.40;;;14.50;99.90;;;;;;5017323;28;20018;-83
2022/06/09 00:27:23;;;;;;;0.50;0.40;;;14.60;99.90;;;;;;4999465;28;20401;-83
2022/06/09 00:29:49;;;;;;;0.85;0.40;;;14.60;99.90;;;;;;5017271;28;20021;-83
2022/06/09 00:32:15;;;;;;;0.50;0.50;;;14.60;99.90;;;;;;5017508;28;20419;-83
2022/06/09 00:34:40;;;;;;;0.30;0.30;;;14.60;99.90;;;;;;5016021;28;20038;-83
2022/06/09 00:37:06;;;;;;;0.40;0.40;;;14.60;99.90;;;;;;4999510;28;20026;-83
2022/06/09 00:39:32;;;;;;;0.32;0.32;;;14.60;99.90;;;;;;4999561;28;20030;-82
2022/06/09 00:41:57;;;;;;;0.38;0.38;;;14.70;99.90;;;;;;5019100;28;20028;-82
2022/06/09 00:44:28;;;;;;;0.22;0.22;;;14.70;99.90;;;;;;5026150;28;20033;-82
2022/06/09 00:46:59;;;;;;;1.13;0.55;;;14.80;99.90;;;;;;5036745;28;20028;-83
2022/06/09 00:49:29;;;;;;;0.82;0.40;;;14.80;99.90;;;;;;5037126;28;20017;-82
2022/06/09 00:51:58;;;;;;;0.75;0.40;;;14.80;99.90;;;;;;5037597;28;20085;-82
2022/06/09 00:54:45;;;;;;;0.50;0.50;;;14.80;99.90;;;;;;5009285;28;20022;-82
2022/06/09 00:57:33;;;;;;;0.73;0.50;;;14.80;99.90;;;;;;5018347;28;20069;-81
2022/06/09 01:00:04;;;;;;;1.42;0.70;;;14.80;99.90;;;;;;5018951;28;20088;-82
2022/06/09 01:02:30;;;;;;;1.13;0.80;;;14.80;99.90;;;;;;5013095;28;20029;-82
2022/06/09 01:04:56;;;;;;;1.10;1.00;;;14.80;99.90;;;;;;4995077;28;20026;-81
2022/06/09 01:07:26;;;;;;;0.85;0.60;;;14.80;99.90;;;;;;4995965;28;20089;-82
2022/06/09 01:09:52;;;;;;;0.60;0.60;;;14.80;99.90;;;;;;4999305;28;20490;-82
2022/06/09 01:12:24;;;;;;;0.68;0.52;;;14.80;99.90;;;;;;5024991;28;20056;-83
2022/06/09 01:14:50;;;;;;;0.77;0.60;;;14.80;99.90;;;;;;5021772;28;20026;-82
2022/06/09 01:17:27;;;;;;;2.47;0.85;;;14.80;99.90;;;;;;5037245;28;20075;-82
2022/06/09 01:20:06;;;;;;;1.20;1.15;;;14.80;99.90;;;;;;5037114;28;20032;-82
2022/06/09 01:22:51;;;;;;;0.88;0.70;;;14.80;99.90;;;;;;5037565;28;20175;-82
2022/06/09 01:25:44;;;;;;;1.38;0.70;;;14.80;99.90;;;;;;5037781;28;20382;-83
2022/06/09 01:28:31;;;;;;;2.17;0.95;;;14.80;99.90;;;;;;5037521;28;20037;-83
2022/06/09 01:31:01;;;;;;;0.80;0.80;;;14.80;99.90;;;;;;5023067;28;20033;-82
2022/06/09 01:33:48;;;;;;;3.42;1.08;;;14.80;99.90;;;;;;5017357;28;20022;-82
2022/06/09 01:36:23;;;;;;;1.02;0.77;;;14.80;99.90;;;;;;5017319;28;20033;-82
2022/06/09 01:38:55;;;;;;;0.63;0.63;;;14.80;99.90;;;;;;4999528;28;20022;-82
2022/06/09 01:41:22;;;;;;;;;;;14.80;99.90;;;;;;5014120;28;20030;-82
2022/06/09 01:43:49;;;;;;;1.33;0.80;;;14.70;99.90;;;;;;5028588;28;19959;-83
2022/06/09 01:46:25;;;;;;;1.00;0.90;;;14.80;99.90;;;;;;5039930;28;20017;-83
2022/06/09 01:48:58;;;;;;;2.25;0.90;;;14.70;99.90;;;;;;5040695;28;20030;-83
2022/06/09 01:51:27;;;;;;;1.98;0.77;;;14.70;99.90;;;;;;5028304;28;20095;-83
2022/06/09 01:54:06;;;;;;;1.70;1.20;;;14.70;99.90;;;;;;5021338;28;20033;-84
2022/06/09 01:56:50;;;;;;;2.55;1.10;;;14.70;99.90;;;;;;5028221;28;20022;-83
2022/06/09 01:59:27;;;;;;;1.50;1.02;;;14.70;99.90;;;;;;5037094;28;20029;-83
2022/06/09 02:02:07;;;;;;;3.63;1.00;;;14.70;99.90;;;;;;5024531;28;20026;-83
2022/06/09 02:04:43;;;;;;;1.63;1.00;;;14.70;99.90;;;;;;5036003;28;20178;-82
2022/06/09 02:07:10;;;;;;;1.17;1.08;;;14.70;99.90;;;;;;5037673;28;20022;-82
2022/06/09 02:09:39;;;;;;;1.92;1.05;;;14.60;99.90;;;;;;5018241;28;20052;-83
2022/06/09 02:12:16;;;;;;;2.78;1.88;;;14.60;99.90;;;;;;5035438;28;20029;-83
2022/06/09 02:14:49;;;;;;;4.47;1.45;;;14.50;99.90;;;;;;5035852;28;20068;-83
2022/06/09 02:17:15;;;;;;;1.30;1.20;;;14.50;99.90;;;;;;5038638;28;20045;-82
2022/06/09 02:19:42;;;;;;;1.75;1.25;;;14.50;99.90;;;;;;5029112;28;20062;-82
2022/06/09 02:22:10;;;;;;;0.95;0.93;;;14.50;99.90;;;;;;5026130;28;20025;-81
2022/06/09 02:24:36;;;;;;;1.23;0.93;;;14.50;99.90;;;;;;5036194;28;20049;-81
2022/06/09 02:27:02;;;;;;;3.22;0.95;;;14.50;99.90;;;;;;5025168;28;20042;-82
2022/06/09 02:29:27;;;;;;;4.95;1.05;;;14.50;99.90;;;;;;5002850;28;20026;-82
2022/06/09 02:31:54;;;;;;;2.45;1.10;;;14.50;99.90;;;;;;5019639;28;20545;-83
2022/06/09 02:34:21;;;;;;;1.50;1.10;;;14.50;99.90;;;;;;5020109;28;20030;-82
2022/06/09 02:36:47;;;;;;;2.42;1.20;;;14.50;99.90;;;;;;5019249;28;20026;-82
2022/06/09 02:39:12;;;;;;;3.75;1.33;;;14.40;99.90;;;;;;5022798;28;20033;-83
2022/06/09 02:41:38;;;;;;;1.13;1.13;;;14.40;99.90;;;;;;5027515;28;20026;-83
2022/06/09 02:44:04;;;;;;;3.20;1.17;;;14.40;99.90;;;;;;5040432;28;20064;-83
2022/06/09 02:46:31;;;;;;;1.10;1.00;;;14.40;99.90;;;;;;5045446;28;20021;-83
2022/06/09 02:48:57;;;;;;;2.20;1.55;;;14.30;99.90;;;;;;5025017;28;20451;-83
2022/06/09 02:51:33;;;;;;;1.92;1.25;;;14.30;99.90;;;;;;5046648;28;20045;-83
2022/06/09 02:54:03;;;;;;;2.45;1.60;;;14.30;99.90;;;;;;5049046;28;20081;-83
2022/06/09 02:56:28;;;;;;;2.03;1.20;;;14.30;99.90;;;;;;5047380;28;20048;-83
2022/06/09 02:58:56;;;;;;;2.08;1.30;;;14.30;99.90;;;;;;5040590;28;20021;-84
2022/06/09 03:01:23;;;;;;;1.40;1.20;;;14.30;99.90;;;;;;5025829;28;20517;-82
2022/06/09 03:03:49;;;;;;;2.83;0.95;;;14.30;99.90;;;;;;5020608;28;20029;-83
2022/06/09 03:06:15;;;;;;;2.13;1.10;;;14.30;99.90;;;;;;5019505;28;20022;-82
2022/06/09 03:08:41;;;;;;;1.23;1.10;;;14.30;99.90;;;;;;5019976;28;20091;-83
2022/06/09 03:11:10;;;;;;;1.75;0.80;;;14.20;99.90;;;;;;5001164;28;20022;-83
2022/06/09 03:13:38;;;;;;;1.77;0.93;;;14.20;99.90;;;;;;5026601;28;20036;-85
2022/06/09 03:16:06;;;;;;;1.27;1.17;;;14.20;99.90;;;;;;5016220;28;20062;-83
2022/06/09 03:18:32;;;;;;;0.95;0.95;;;14.20;99.90;;;;;;5023621;28;20063;-83
2022/06/09 03:20:58;;;;;;;1.85;1.35;;;14.20;99.90;;;;;;5024328;28;20159;-83
2022/06/09 03:23:24;;;;;;;1.52;0.90;;;14.20;99.90;;;;;;5025610;28;20075;-84
2022/06/09 03:25:50;;;;;;;0.75;0.70;;;14.20;99.90;;;;;;5025537;28;20042;-83
2022/06/09 03:28:16;;;;;;;4.35;1.20;;;14.20;99.90;;;;;;5007476;28;20070;-83
2022/06/09 03:30:42;;;;;;;1.30;1.00;;;14.20;99.90;;;;;;5031176;28;20034;-83
2022/06/09 03:33:08;;;;;;;1.10;1.00;;;14.20;99.90;;;;;;5025075;28;20049;-83
2022/06/09 03:35:34;;;;;;;1.33;1.02;;;14.30;99.90;;;;;;5024260;28;20030;-83
2022/06/09 03:38:00;;;;;;;2.47;0.82;;;14.30;99.90;;;;;;5027524;28;20412;-82
2022/06/09 03:40:28;;;;;;;0.82;0.65;;;14.40;99.90;;;;;;5009373;28;20033;-83
2022/06/09 03:42:55;;;;;;;3.17;1.30;;;14.50;99.90;;;;;;5031785;28;20029;-82
2022/06/09 03:45:21;;;;;;;1.35;1.23;;;14.50;99.90;;;;;;5033933;28;20079;-82
2022/06/09 03:47:47;;;;;;;3.63;0.98;;;14.60;99.90;;;;;;5036050;28;20025;-82
2022/06/09 03:50:22;;;;;;;1.00;0.75;;;14.60;99.90;;;;;;5037526;28;20036;-82
2022/06/09 03:52:48;;;;;;;0.98;0.98;;;14.60;99.90;;;;;;5041675;28;20071;-82
2022/06/09 03:55:14;;;;;;;2.03;1.30;;;14.60;99.90;;;;;;5037052;28;20443;-82
2022/06/09 03:57:40;;;;;;;1.70;1.00;;;14.60;99.90;;;;;;5037953;28;20026;-82
2022/06/09 04:00:07;;;;;;;1.27;1.17;;;14.60;99.90;;;;;;5036957;28;20140;-82
2022/06/09 04:02:34;;;;;;;2.70;1.20;;;14.70;99.90;;;;;;5011670;28;20033;-88
2022/06/09 04:05:01;;;;;;;3.33;1.25;;;14.70;99.90;;;;;;5000625;28;20044;-82
2022/06/09 04:07:27;;;;;;;1.90;1.15;;;14.70;99.90;;;;;;5019437;28;20021;-85
2022/06/09 04:09:53;;;;;;;1.85;1.00;;;14.80;99.90;;;;;;5019283;28;20048;-84
2022/06/09 04:12:19;;;;;;;1.42;1.10;;;14.80;99.90;;;;;;5030734;28;20025;-79
2022/06/09 04:14:47;;;;;;;1.20;1.00;;;14.90;99.90;;;;;;5032628;28;20037;-83
2022/06/09 04:17:13;;;;;;;0.82;0.80;;;14.90;99.90;;;;;;5039419;28;20397;-82
2022/06/09 04:19:39;;;;;;;1.98;1.25;;;15.00;99.90;;;;;;5038954;28;20056;-83
2022/06/09 04:22:06;;;;;;;0.80;0.80;;;15.00;99.90;;;;;;5036414;28;20492;-84
2022/06/09 04:24:32;;;;;;;4.57;1.30;;;15.00;99.90;;;;;;5002269;28;20045;-84
2022/06/09 04:26:57;;;;;;;0.80;0.80;;;15.00;99.90;;;;;;5019273;28;20022;-83
2022/06/09 04:29:23;;;;;;;2.78;1.00;;;15.00;99.90;;;;;;5000729;28;20137;-82
2022/06/09 04:31:49;;;;;;;1.67;0.90;;;15.00;99.90;;;;;;5023740;28;20362;-81
2022/06/09 04:34:15;;;;;;;1.70;1.00;;;15.00;99.90;;;;;;5006492;28;20033;-79
2022/06/09 04:36:41;;;;;;;1.65;1.10;;;15.00;99.90;;;;;;5035210;28;20041;-78
2022/06/09 04:39:08;;;;;;;1.40;0.90;;;14.90;99.90;;;;;;5026198;28;20039;-81
2022/06/09 04:41:35;;;;;;;0.90;0.90;;;14.80;99.90;;;;;;4998427;28;20049;-83
2022/06/09 04:44:01;;;;;;;1.50;0.73;;;14.80;99.90;;;;;;5030446;28;20034;-82
2022/06/09 04:46:27;;;;;;;2.25;1.10;;;14.80;99.90;;;;;;5018411;28;20030;-81
2022/06/09 04:48:53;;;;;;;9.82;1.55;;;14.80;99.90;;;;;;5001198;28;20061;-81
2022/06/09 04:51:21;;;;;;;0.80;0.80;;;14.90;99.90;;;;;;5018709;28;20076;-82
2022/06/09 04:53:48;;;;;;;1.80;1.00;;;14.90;99.90;;;;;;5000194;28;20550;-83
2022/06/09 04:56:14;;;;;;;0.88;0.85;;;14.90;99.90;;;;;;5036757;22;20058;-78
2022/06/09 04:58:41;;;;;;;0.93;0.90;;;14.90;99.90;;;;;;4987440;28;20023;-77
2022/06/09 05:01:14;;;;;;;2.08;0.85;;;14.90;99.90;;;;;;4977377;28;20034;-77
2022/06/09 05:03:39;;;;;;;2.40;0.80;;;14.90;99.90;;;;;;4986259;28;20096;-79
2022/06/09 05:06:05;;;;;;;2.30;1.02;;;14.90;99.90;;;;;;4996641;28;20034;-78
2022/06/09 05:08:31;;;;;;;1.33;1.10;;;15.00;99.90;;;;;;4996412;28;20049;-79
2022/06/09 05:10:56;;;;;;;1.75;0.95;;;15.00;99.90;;;;;;4996975;28;20034;-76
2022/06/09 05:13:22;;;;;;;1.63;1.15;;;15.00;99.90;;;;;;4994701;28;20034;-77
2022/06/09 05:15:53;;;;;;;2.22;0.85;;;15.10;99.90;;;;;;5016118;28;20382;-79
2022/06/09 05:18:21;;;;;;;1.17;1.00;;;15.10;99.90;;;;;;5018264;28;20065;-77
2022/06/09 05:20:49;;;;;;;1.00;0.95;;;15.20;99.90;;;;;;5019262;28;20386;-78
2022/06/09 05:23:14;;;;;;;1.70;1.00;;;15.20;99.90;;;;;;5017216;28;20545;-78
2022/06/09 05:25:40;;;;;;;0.70;0.70;;;15.20;99.90;;;;;;4999706;28;20030;-77
2022/06/09 05:28:06;;;;;;;3.00;1.27;;;15.10;99.90;;;;;;5003386;28;20019;-78
2022/06/09 05:30:32;;;;;;;1.15;1.08;;;15.10;99.90;;;;;;4992378;28;20031;-78
2022/06/09 05:32:58;;;;;;;1.77;0.90;;;15.10;99.90;;;;;;5008325;28;20026;-79
2022/06/09 05:35:24;;;;;;;2.45;1.13;;;15.10;99.90;;;;;;5010218;28;20023;-76
2022/06/09 05:46:05;;;;;;;1.40;1.20;;;14.90;99.90;;;;;;4980917;28;20056;-77
2022/06/09 05:48:30;;;;;;;1.20;0.70;;;14.90;99.90;;;;;;4982163;28;20027;-79
2022/06/09 05:50:57;;;;;;;5.03;1.23;;;14.80;99.90;;;;;;4963465;28;20023;-79
2022/06/09 05:53:23;;;;;;;2.25;1.23;;;14.90;99.90;;;;;;4964136;28;20050;-78
2022/06/09 05:55:48;;;;;;;2.40;1.08;;;14.90;99.90;;;;;;4981125;28;20042;-79
2022/06/09 05:58:15;;;;;;;2.55;1.17;;;14.90;99.90;;;;;;4981242;28;20110;-77
2022/06/09 06:00:41;;;;;;;3.75;1.10;;;14.80;99.90;;;;;;4982320;28;20038;-77
2022/06/09 06:03:09;;;;;;;2.08;1.10;;;14.80;99.90;;;;;;4980545;28;20550;-78
2022/06/09 06:08:19;;;;;;;0.93;0.90;;;14.90;99.90;;;;;;4980674;28;20611;-78
2022/06/09 06:10:44;;;;;;;2.60;1.08;;;14.90;99.90;;;;;;4962550;28;20128;-78
2022/06/09 06:13:13;;;;;;;3.42;2.22;;;14.70;99.90;;;;;;5012214;28;20052;-77
2022/06/09 06:15:39;;;;;;;2.47;0.70;;;14.60;99.90;;;;;;5020821;28;20010;-77
2022/06/09 06:18:05;;;;;;;2.05;1.10;;;14.50;99.90;;;;;;5017701;28;20030;-79
2022/06/09 06:20:32;;;;;;;1.23;1.02;;;14.40;99.90;;;;;;5002299;28;20036;-78
2022/06/09 06:22:59;;;;;;;1.10;1.00;;;14.30;99.90;;;;;;5004137;28;20030;-77
2022/06/09 06:25:25;;;;;;;0.80;0.80;;;14.30;99.90;;;;;;4985000;28;20034;-78
2022/06/09 06:27:51;;;;;;;2.83;1.27;;;14.30;99.90;;;;;;4998490;28;20051;-79
2022/06/09 06:30:18;;;;;;;3.10;1.10;;;14.40;99.90;;;;;;4997587;28;20333;-77
2022/06/09 06:32:45;;;;;;;1.17;1.08;;;14.50;99.90;;;;;;4981711;28;20071;-81
2022/06/09 06:35:13;;;;;;;1.05;1.05;;;14.60;99.90;;;;;;5000050;28;20037;-79
2022/06/09 06:37:38;;;;;;;1.95;1.10;;;14.60;99.90;;;;;;4983773;28;20046;-78
2022/06/09 06:40:05;;;;;;;1.90;1.10;;;14.60;99.90;;;;;;4984862;28;20101;-79
2022/06/09 06:42:31;;;;;;;2.38;1.30;;;14.70;99.90;;;;;;5011688;28;20513;-79
2022/06/09 06:44:57;;;;;;;1.63;1.20;;;14.80;99.90;;;;;;5020850;28;20038;-79
2022/06/09 06:47:23;;;;;;;1.13;1.10;;;14.90;99.90;;;;;;5022334;28;20014;-77
2022/06/09 06:49:49;;;;;;;2.17;0.90;;;15.00;99.90;;;;;;5020887;28;20125;-79
2022/06/09 06:52:14;;;;;;;0.95;0.77;;;15.20;99.90;;;;;;5020096;28;20029;-78
2022/06/09 06:54:40;;;;;;;1.95;0.85;;;15.40;99.90;;;;;;5022519;28;20026;-79
2022/06/09 06:57:08;;;;;;;0.85;0.80;;;15.60;99.90;;;;;;5024314;28;20034;-79
2022/06/09 06:59:34;;;;;;;3.38;1.30;;;15.80;99.90;;;;;;5022923;28;20022;-77
2022/06/09 07:02:00;;;;;;;1.67;0.90;;;16.10;99.90;;;;;;5005686;28;20115;-78
2022/06/09 07:04:25;;;;;;;1.17;0.77;;;16.20;99.90;;;;;;4999526;28;20026;-77
2022/06/09 07:06:51;;;;;;;1.42;0.60;;;16.30;99.90;;;;;;4998929;28;20101;-77
2022/06/09 07:09:17;;;;;;;2.58;0.95;;;16.50;98.10;;;;;;4998279;28;20027;-77
2022/06/09 07:11:45;;;;;;;2.45;1.35;;;16.60;97.80;;;;;;4998307;28;20022;-76
2022/06/09 07:14:11;;;;;;;3.03;0.60;;;16.70;96.80;;;;;;4994805;28;20112;-78
2022/06/09 07:16:37;;;;;;;1.00;0.65;;;16.70;96.60;;;;;;5001588;28;20350;-77
2022/06/09 07:19:03;;;;;;;1.45;0.50;;;16.90;96.70;;;;;;4998496;28;20117;-79
2022/06/09 07:21:29;;;;;;;1.33;0.70;;;17.10;96.70;;;;;;4984841;28;20072;-79
2022/06/09 07:23:55;;;;;;;1.35;1.10;;;17.30;96.90;;;;;;4997315;28;20018;-78
2022/06/09 07:26:22;;;;;;;1.02;0.80;;;17.50;95.50;;;;;;4997915;28;20034;-78
2022/06/09 07:28:47;;;;;;;2.63;1.02;;;17.50;95.00;;;;;;4997159;28;20022;-78
2022/06/09 07:31:13;;;;;;;1.48;0.93;;;17.60;94.90;;;;;;4996769;28;20428;-80
2022/06/09 07:33:40;;;;;;;1.40;1.00;;;17.80;95.00;;;;;;4980822;28;20025;-79
2022/06/09 07:36:10;;;;;;;3.85;0.80;;;18.00;94.00;;;;;;4980322;28;20030;-78
2022/06/09 07:38:36;;;;;;;1.40;0.73;;;18.40;97.70;;;;;;4997481;28;20041;-77
2022/06/09 07:41:03;;;;;;;2.20;0.90;;;18.80;92.00;;;;;;5001035;28;20026;-76
2022/06/09 07:43:28;;;;;;;1.85;0.90;;;19.20;94.20;;;;;;5011855;28;20080;-77
2022/06/09 07:45:55;;;;;;;1.20;0.80;;;19.30;99.40;;;;;;5023690;28;20037;-77
2022/06/09 07:48:21;;;;;;;1.20;0.60;;;19.30;91.10;;;;;;5017279;28;20113;-78
2022/06/09 07:50:49;;;;;;;1.80;0.88;;;19.40;91.10;;;;;;5018166;28;20049;-77
2022/06/09 07:53:16;;;;;;;0.50;0.50;;;19.20;90.80;;;;;;5016141;28;20025;-77
2022/06/09 07:55:44;;;;;;;1.85;0.90;;;18.70;90.50;;;;;;4998158;28;20486;-78
2022/06/09 07:58:10;;;;;;;1.15;0.52;;;18.20;91.00;;;;;;5016399;28;20041;-81
2022/06/09 08:00:35;;;;;;;0.73;0.60;;;17.80;92.60;;;;;;5016691;28;20022;-79
2022/06/09 08:03:03;;;;;;;3.53;1.05;;;17.40;93.10;;;;;;4998413;28;20038;-77
2022/06/09 08:05:30;;;;;;;1.38;0.70;;;16.90;94.40;;;;;;4995063;28;20522;-80
2022/06/09 08:07:56;;;;;;;2.80;0.90;;;16.10;98.30;;;;;;4995834;28;20467;-77
2022/06/09 08:10:24;;;;;;;2.47;0.88;;;15.40;99.90;;;;;;4979300;28;20076;-77
2022/06/09 08:12:53;;;;;;;1.85;1.00;;;14.80;99.90;;;;;;5011231;28;20383;-78
2022/06/09 08:15:20;;;;;;;3.03;1.52;;;14.50;99.90;;;;;;5019760;28;20447;-78
2022/06/09 08:17:46;;;;;;;4.13;1.67;;;14.30;99.90;;;;;;5022139;28;20022;-78
2022/06/09 08:20:12;;;;;;;4.32;1.90;;;14.20;99.90;;;;;;5028441;28;20037;-77
2022/06/09 08:22:40;;;;;;;1.92;1.70;;;14.10;99.90;;;;;;5014950;28;20081;-80
2022/06/09 08:25:08;;;;;;;3.38;1.67;;;14.10;99.90;;;;;;4996146;28;20108;-78
2022/06/09 08:27:35;;;;;;;3.38;2.13;;;14.10;99.90;;;;;;4996546;28;20023;-78
2022/06/09 08:30:01;;;;;;;2.03;1.70;;;14.10;99.90;;;;;;4996702;28;20030;-78
2022/06/09 08:32:26;;;;;;;3.55;1.75;;;14.20;99.90;;;;;;4996939;28;20093;-78
2022/06/09 08:34:52;;;;;;;1.92;1.40;;;14.30;99.90;;;;;;4997941;28;20036;-80
2022/06/09 08:37:18;;;;;;;3.17;1.80;;;14.30;99.90;;;;;;4996260;28;20026;-78
2022/06/09 08:39:43;;;;;;;3.40;1.90;;;14.30;99.90;;;;;;4996664;28;20034;-77
2022/06/09 08:42:34;;;;;;;3.70;1.98;;;14.30;99.90;;;;;;5002852;28;20022;-79
2022/06/09 08:45:23;;;;;;;3.33;1.80;;;14.20;99.90;;;;;;4983513;28;20060;-77
2022/06/09 08:47:54;;;;;;;5.32;2.13;;;14.10;99.90;;;;;;4998158;28;20045;-78
2022/06/09 08:50:28;;;;;;;6.38;2.30;;;14.10;99.90;;;;;;5000534;28;20022;-77
2022/06/09 08:52:58;;;;;;;6.68;2.40;;;14.10;99.90;;;;;;4996654;28;20037;-77
2022/06/09 08:55:49;;;;;;;3.25;2.13;;;14.30;99.90;;;;;;4997854;28;20030;-78
2022/06/09 08:58:19;;;;;;;4.82;2.08;;;14.50;99.90;;;;;;4992657;28;20136;-78
2022/06/09 09:00:52;;;;;;;4.05;2.00;;;14.70;99.90;;;;;;4999065;28;20022;-80
2022/06/09 09:03:31;;;;;;;4.07;2.80;;;14.90;99.90;;;;;;4999214;28;20023;-78
2022/06/09 09:06:16;;;;;;;5.13;2.15;;;15.00;99.90;;;;;;4982128;28;20034;-79
2022/06/09 09:08:41;;;;;;;2.92;2.00;;;15.10;99.90;;;;;;5000710;28;20046;-80
2022/06/09 09:11:30;;;;;;;5.75;2.10;;;15.10;99.90;;;;;;5000966;28;20069;-80
2022/06/09 09:14:06;;;;;;;2.83;1.40;;;15.20;99.90;;;;;;4977496;28;20080;-77
2022/06/09 09:16:57;;;;;;;3.50;2.00;;;15.40;99.90;;;;;;5019419;28;20029;-77
2022/06/09 09:19:25;;;;;;;3.65;2.17;;;15.60;99.90;;;;;;5019262;28;20197;-78
2022/06/09 09:22:09;;;;;;;2.95;1.63;;;15.90;99.90;;;;;;5019914;28;20026;-78
2022/06/09 09:25:05;;;;;;;2.05;1.33;;;16.20;99.90;;;;;;5010658;28;20456;-77
2022/06/09 09:27:47;;;;;;;6.03;1.70;;;16.50;99.90;;;;;;4999518;28;20510;-77
2022/06/09 09:30:30;;;;;;;5.63;2.53;;;16.70;99.90;;;;;;4999001;28;20026;-79
2022/06/09 09:32:57;;;;;;;6.15;1.88;;;16.80;99.90;;;;;;4999501;28;20034;-80
2022/06/09 09:35:34;;;;;;;1.85;1.50;;;16.80;99.90;;;;;;4999607;28;20035;-78
2022/06/09 09:38:01;;;;;;;3.30;1.50;;;16.80;99.90;;;;;;4982254;28;20092;-77
2022/06/09 09:40:39;;;;;;;4.80;1.60;;;16.90;99.90;;;;;;4999268;28;20081;-77
2022/06/09 09:43:36;;;;;;;4.05;1.77;;;17.10;99.90;;;;;;5013022;28;20030;-78
2022/06/09 09:46:02;;;;;;;3.55;1.27;;;17.10;99.90;;;;;;4975754;28;20517;-79
2022/06/09 09:48:34;;;;;;;1.70;0.90;;;17.20;99.90;;;;;;4980104;28;20395;-78
2022/06/09 09:51:00;;;;;;;3.10;1.33;;;17.30;99.90;;;;;;5000539;28;20023;-80
2022/06/09 09:53:46;;;;;;;4.40;1.45;;;17.40;99.90;;;;;;4998979;28;20038;-77
2022/06/09 09:56:14;;;;;;;4.97;1.45;;;17.70;98.60;;;;;;4999009;28;20066;-78
2022/06/09 09:58:46;;;;;;;3.88;1.20;;;17.90;98.10;;;;;;4999207;28;20100;-78
2022/06/09 10:01:17;;;;;;;3.67;1.33;;;18.10;97.50;;;;;;4999664;28;20088;-78
2022/06/09 10:09:41;;;;;;;4.03;1.58;;;18.50;93.40;;;;;;5000181;28;20057;-77
2022/06/09 10:12:23;;;;;;;3.55;1.30;;;18.00;93.00;;;;;;5005754;28;20018;-78
2022/06/09 10:14:55;;;;;;;;;;;17.20;93.60;;;;;;5001834;28;20053;-78
2022/06/09 10:17:54;;;;;;;1.17;0.70;;;16.20;96.60;;;;;;5022169;28;19921;-78
2022/06/09 10:20:30;;;;;;;2.65;1.20;;;15.40;97.10;;;;;;4981459;28;20542;-78
2022/06/09 10:23:11;;;;;;;3.10;1.30;;;14.80;99.10;;;;;;4982142;28;20365;-77
2022/06/09 10:25:59;;;;;;;2.30;0.90;;;14.50;99.90;;;;;;4978896;28;20026;-78
2022/06/09 10:28:27;;;;;;;1.17;0.70;;;14.30;99.90;;;;;;4979043;28;20019;-80
2022/06/09 10:31:30;;;;;;;0.90;0.80;;;14.30;99.90;;;;;;4979082;28;20031;-78
2022/06/09 10:34:10;;;;;;;4.18;1.92;;;14.50;99.90;;;;;;4987940;28;20028;-79
2022/06/09 10:36:58;;;;;;;4.47;1.42;;;14.70;99.90;;;;;;4998898;28;20061;-79
2022/06/09 10:39:32;;;;;;;5.45;1.85;;;14.80;99.90;;;;;;4997814;28;20133;-76
2022/06/09 10:42:03;;;;;;;4.05;1.40;;;15.00;99.90;;;;;;5003138;28;20018;-77
2022/06/09 10:44:44;;;;;;;3.90;1.70;;;15.10;99.90;;;;;;5017275;28;20117;-77
2022/06/09 10:56:33;;;;;;;2.15;1.08;;;15.60;99.90;;;;;;5034083;22;20052;-83
2022/06/09 10:59:07;;;;;;;4.63;1.67;;;15.90;99.90;;;;;;5033195;28;20436;-83
2022/06/09 11:01:34;;;;;;;4.30;1.42;;;16.00;99.90;;;;;;5047124;28;20036;-83
2022/06/09 11:04:03;;;;;;;3.28;1.45;;;16.30;99.90;;;;;;5075274;28;20014;-83
2022/06/09 11:06:53;;;;;;;4.75;1.67;;;16.40;99.90;;;;;;5074725;28;20124;-84
2022/06/09 11:09:25;;;;;;;5.40;1.40;;;16.60;99.90;;;;;;5052918;28;20021;-83
2022/06/09 11:12:06;;;;;;;3.95;1.55;;;16.60;99.90;;;;;;5046940;28;20033;-84
2022/06/09 11:15:00;;;;;;;1.85;1.38;;;16.80;99.90;;;;;;5063559;28;20036;-85
2022/06/09 11:17:57;;;;;;;4.45;1.98;;;17.00;99.90;;;;;;5065808;28;20040;-84
2022/06/09 11:20:22;;;;;;;3.03;1.73;;;17.40;99.20;;;;;;5063708;28;20060;-84
2022/06/09 11:23:14;;;;;;;2.70;1.70;;;18.00;98.80;;;;;;5045427;28;20036;-86
2022/06/09 11:25:54;;;;;;;1.33;1.20;;;18.50;98.10;;;;;;5045050;28;20033;-83
2022/06/09 11:28:37;;;;;;;1.52;1.33;;;19.00;96.40;;;;;;5063191;28;20049;-83
2022/06/09 11:31:34;;;;;;;3.75;1.20;;;19.50;94.80;;;;;;5044737;28;20021;-83
2022/06/09 11:34:12;;;;;;;4.50;1.40;;;19.90;92.60;;;;;;5063243;28;20043;-83
2022/06/09 11:36:46;;;;;;;3.55;1.30;;;20.40;91.70;;;;;;5045081;28;20056;-83
2022/06/09 11:39:29;;;;;;;1.42;1.02;;;20.80;90.40;;;;;;5054319;28;20041;-88
2022/06/09 11:42:04;;;;;;;1.10;1.10;;;21.20;90.60;;;;;;5067076;28;20077;-83
2022/06/09 11:44:39;;;;;;;2.20;0.80;;;21.80;88.00;;;;;;5059414;28;20068;-84
2022/06/09 11:47:14;;;;;;;1.42;1.08;;;22.00;84.50;;;;;;5053607;28;20084;-82
2022/06/09 11:49:48;;;;;;;1.48;0.73;;;22.30;82.50;;;;;;5048062;28;20079;-83
2022/06/09 11:52:28;;;;;;;1.05;0.80;;;22.60;80.40;;;;;;5046259;28;20027;-85
2022/06/09 11:54:55;;;;;;;1.00;0.55;;;22.80;78.00;;;;;;5071631;28;20070;-82
2022/06/09 11:57:42;;;;;;;2.20;0.75;;;22.60;77.40;;;;;;5052387;28;20404;-84
2022/06/09 12:00:26;;;;;;;2.95;1.02;;;21.90;77.50;;;;;;5063750;28;20033;-83
2022/06/09 12:03:09;;;;;;;2.05;1.10;;;21.00;77.30;;;;;;5064666;28;20047;-82
2022/06/09 12:05:36;;;;;;;3.90;1.20;;;20.20;81.40;;;;;;5063202;28;20056;-84
2022/06/09 12:08:33;;;;;;;7.93;2.08;;;19.60;84.40;;;;;;5062358;28;20045;-83
2022/06/09 12:11:18;;;;;;;2.67;0.80;;;19.30;84.00;;;;;;5062237;28;20031;-83
2022/06/09 12:13:54;;;;;;;3.03;0.80;;;19.20;80.60;;;;;;5055502;28;20044;-84
2022/06/09 12:16:35;;;;;;;2.97;0.70;;;19.10;80.80;;;;;;5082288;28;20422;-83
2022/06/09 12:19:19;;;;;;;3.60;0.80;;;19.30;81.60;;;;;;5064569;28;20044;-83
2022/06/09 12:21:52;;;;;;;2.15;1.08;;;19.50;82.60;;;;;;5082221;28;20024;-84
2022/06/09 12:24:32;;;;;;;1.42;1.20;;;19.60;84.20;;;;;;5053148;28;20099;-85
2022/06/09 12:27:21;;;;;;;2.08;0.93;;;19.80;83.90;;;;;;5049420;28;20036;-84
2022/06/09 12:30:20;;;;;;;2.70;0.90;;;19.90;82.20;;;;;;5042750;28;20116;-84
2022/06/09 12:32:54;;;;;;;1.42;0.80;;;19.90;79.30;;;;;;5055336;28;20061;-84
2022/06/09 12:35:31;;;;;;;2.20;1.25;;;19.70;81.10;;;;;;5063164;28;20021;-84
2022/06/09 12:38:04;;;;;;;1.77;1.00;;;19.40;80.60;;;;;;5061630;28;20106;-84
2022/06/09 12:40:44;;;;;;;1.77;0.80;;;19.30;82.40;;;;;;5061784;28;20114;-83
2022/06/09 12:43:42;;;;;;;1.45;0.75;;;19.30;83.00;;;;;;5043975;28;20037;-83
2022/06/09 12:46:22;;;;;;;3.35;0.80;;;19.30;82.90;;;;;;5045577;28;20513;-83
2022/06/09 12:48:50;;;;;;;2.20;0.75;;;19.50;81.50;;;;;;5065038;28;20017;-83
2022/06/09 12:51:22;;;;;;;2.33;0.65;;;19.80;81.30;;;;;;5047510;28;20021;-83
2022/06/09 12:54:26;;;;;;;1.65;0.65;;;20.10;81.00;;;;;;5042567;28;20017;-83
2022/06/09 12:57:06;;;;;;;0.60;0.57;;;20.40;78.80;;;;;;5025402;28;20041;-84
2022/06/09 12:59:35;;;;;;;0.55;0.50;;;20.70;77.40;;;;;;5061068;28;20081;-83
2022/06/09 13:02:29;;;;;;;1.92;0.60;;;21.00;75.90;;;;;;5061349;28;20026;-84
2022/06/09 13:05:01;;;;;;;2.10;0.80;;;20.90;74.20;;;;;;5052839;28;20099;-83
2022/06/09 13:07:34;;;;;;;0.90;0.80;;;21.00;75.10;;;;;;5060324;28;20024;-85
2022/06/09 13:10:22;;;;;;;4.90;1.17;;;21.10;73.90;;;;;;5060487;28;20100;-84
2022/06/09 13:12:52;;;;;;;1.98;0.75;;;21.10;73.50;;;;;;5071592;28;20096;-84
2022/06/09 13:15:45;;;;;;;1.85;0.65;;;21.10;71.80;;;;;;5066353;28;20029;-85
2022/06/09 13:18:21;;;;;;;2.55;0.63;;;21.20;72.30;;;;;;5060284;28;20069;-85
2022/06/09 13:20:51;;;;;;;2.03;0.70;;;21.20;71.60;;;;;;5061008;28;20108;-85
2022/06/09 13:23:18;;;;;;;3.53;0.88;;;21.20;71.80;;;;;;5060659;28;20100;-84
2022/06/09 13:25:46;;;;;;;1.48;0.73;;;21.10;71.70;;;;;;5042333;28;20032;-84
2022/06/09 13:28:35;;;;;;;0.68;0.68;;;21.00;72.60;;;;;;5042233;28;20021;-84
2022/06/09 13:31:05;;;;;;;0.95;0.60;;;20.90;72.00;;;;;;5041551;28;20025;-84
2022/06/09 13:33:50;;;;;;;1.00;0.60;;;20.70;72.90;;;;;;5060315;28;20119;-83
2022/06/09 13:36:24;;;;;;;3.05;0.70;;;20.40;74.00;;;;;;5058425;28;20025;-83